Time;durP1;ratioP1;P1;durP2;ratioP2;P2;SDS_P1;SDS_P2;PMS_P1;PMS_P2;Temp;Humidity;BMP_temperature;BMP_pressure;BME280_temperature;BME280_humidity;BME280_pressure;Samples;Min_cycle;Max_cycle;Signal;HPM_P1;HPM_P2
2022/12/09 00:01:02;;;;;;;6.55;4.40;;;;;;;1.13;100.00;100440.50;6054124;23;20022;-71
2022/12/09 00:03:28;;;;;;;3.75;3.55;;;;;;;1.15;100.00;100446.50;6084294;23;20379;-72
2022/12/09 00:05:55;;;;;;;4.40;4.10;;;;;;;0.17;100.00;100281.13;6056026;23;20093;-72
2022/12/09 00:08:21;;;;;;;4.95;4.55;;;;;;;0.81;100.00;100388.53;6085498;23;20086;-71
2022/12/09 00:10:48;;;;;;;4.68;4.22;;;;;;;0.98;100.00;100407.16;6056035;23;20015;-72
2022/12/09 00:13:15;;;;;;;4.05;3.85;;;;;;;1.13;100.00;100430.16;6079796;23;20033;-72
2022/12/09 00:15:41;;;;;;;6.25;3.85;;;;;;;1.13;100.00;100429.31;6055523;23;20015;-73
2022/12/09 00:18:09;;;;;;;4.05;3.85;;;;;;;1.11;100.00;100429.34;6055087;23;20034;-71
2022/12/09 00:20:35;;;;;;;4.45;4.15;;;;;;;1.10;100.00;100431.94;6049490;23;20218;-71
2022/12/09 00:23:02;;;;;;;4.75;4.22;;;;;;;1.09;100.00;100427.66;6084128;23;20673;-71
2022/12/09 00:25:28;;;;;;;4.47;4.07;;;;;;;0.76;100.00;100373.09;6034515;23;20091;-71
2022/12/09 00:27:56;;;;;;;3.70;3.45;;;;;;;1.07;100.00;100422.50;6080136;23;20515;-71
2022/12/09 00:30:22;;;;;;;3.95;3.72;;;;;;;0.81;100.00;100384.22;6051552;23;20029;-71
2022/12/09 00:32:48;;;;;;;4.47;4.18;;;;;;;1.11;100.00;100434.50;6076827;23;20015;-71
2022/12/09 00:35:15;;;;;;;3.80;3.60;;;;;;;1.16;100.00;100429.25;6033005;23;20018;-73
2022/12/09 00:37:42;;;;;;;20.23;4.25;;;;;;;1.16;100.00;100427.53;6079760;23;20091;-72
2022/12/09 00:40:09;;;;;;;4.00;3.75;;;;;;;0.99;100.00;100399.38;6053183;23;20516;-72
2022/12/09 00:42:35;;;;;;;4.60;4.20;;;;;;;0.08;100.00;100246.88;6086468;23;20452;-72
2022/12/09 00:45:03;;;;;;;4.40;4.00;;;;;;;0.05;100.00;100236.63;6057264;23;20262;-72
2022/12/09 00:47:32;;;;;;;3.95;3.65;;;;;;;1.25;100.00;100423.06;6080022;23;20032;-74
2022/12/09 00:49:59;;;;;;;4.00;3.80;;;;;;;1.17;100.00;100431.81;6051998;23;20174;-72
2022/12/09 00:52:25;;;;;;;3.55;3.35;;;;;;;1.10;100.00;100393.16;6027527;23;20046;-72
2022/12/09 00:54:52;;;;;;;4.65;4.35;;;;;;;0.98;100.00;100371.88;6059007;23;20359;-71
2022/12/09 00:57:18;;;;;;;4.45;4.25;;;;;;;1.33;100.00;100427.22;6057841;23;20049;-72
2022/12/09 00:59:45;;;;;;;5.13;4.78;;;;;;;0.72;100.00;100318.09;6081516;23;20022;-71
2022/12/09 01:02:11;;;;;;;7.35;4.22;;;;;;;1.35;100.00;100433.22;6053368;23;20038;-72
2022/12/09 01:04:38;;;;;;;3.97;3.78;;;;;;;1.11;100.00;100387.97;6052486;23;20015;-73
2022/12/09 01:07:05;;;;;;;3.67;3.47;;;;;;;1.38;100.00;100427.13;6049858;23;20304;-71
2022/12/09 01:09:33;;;;;;;6.18;3.80;;;;;;;0.96;100.00;100355.53;6078879;23;20025;-72
2022/12/09 01:11:59;;;;;;;4.20;3.90;;;;;;;1.39;100.00;100431.41;6052844;23;20062;-72
2022/12/09 01:14:26;;;;;;;3.75;3.55;;;;;;;1.37;100.00;100433.19;6077886;23;20032;-74
2022/12/09 01:16:52;;;;;;;5.28;4.75;;;;;;;1.28;100.00;100412.66;6052360;23;20023;-72
2022/12/09 01:19:19;;;;;;;4.43;4.07;;;;;;;1.32;100.00;100416.91;6061434;23;20091;-72
2022/12/09 01:21:46;;;;;;;3.75;3.55;;;;;;;1.08;100.00;100367.34;6053380;23;20030;-71
2022/12/09 01:24:12;;;;;;;4.05;3.80;;;;;;;1.10;100.00;100375.09;6056958;23;20398;-74
2022/12/09 01:26:39;;;;;;;4.38;4.00;;;;;;;1.43;100.00;100427.06;6050248;23;20014;-71
2022/12/09 01:29:06;;;;;;;5.03;4.72;;;;;;;1.45;100.00;100435.63;6080668;23;20046;-71
2022/12/09 01:31:32;;;;;;;3.85;3.55;;;;;;;1.41;100.00;100424.50;6025039;23;20405;-71
2022/12/09 01:34:01;;;;;;;3.33;3.13;;;;;;;1.46;100.00;100432.16;6083397;23;20119;-71
2022/12/09 01:36:29;;;;;;;4.03;3.72;;;;;;;1.15;100.00;100394.81;6050872;23;20019;-73
2022/12/09 01:38:57;;;;;;;3.80;3.60;;;;;;;1.22;100.00;100408.44;6064383;23;20022;-71
2022/12/09 01:41:24;;;;;;;3.83;3.63;;;;;;;1.44;100.00;100437.34;6050346;23;20581;-72
2022/12/09 01:44:12;;;;;;;6.22;3.65;;;;;;;1.44;100.00;100439.94;6090791;23;20688;-72
2022/12/09 01:46:40;;;;;;;4.03;3.75;;;;;;;0.96;100.00;100357.25;6053975;23;20721;-71
2022/12/09 01:49:09;;;;;;;3.78;3.53;;;;;;;0.78;100.00;100324.84;6090245;23;20271;-73
2022/12/09 01:51:36;;;;;;;3.92;3.63;;;;;;;1.37;100.00;100433.19;6036454;23;20096;-72
2022/12/09 01:54:03;;;;;;;3.92;3.72;;;;;;;1.42;100.00;100446.88;6085887;23;20026;-72
2022/12/09 01:56:36;;;;;;;4.97;4.55;;;;;;;0.88;100.00;100357.41;6059663;23;20010;-72
2022/12/09 01:59:09;;;;;;;4.07;3.88;;;;;;;1.41;100.00;100437.41;6052761;23;20468;-72
2022/12/09 02:01:37;;;;;;;3.30;3.10;;;;;;;1.39;100.00;100436.59;6053154;23;20408;-72
2022/12/09 02:04:06;;;;;;;3.95;3.65;;;;;;;1.41;100.00;100432.25;6080438;23;20460;-72
2022/12/09 02:06:37;;;;;;;4.53;4.22;;;;;;;1.30;100.00;100416.91;6050660;23;20010;-73
2022/12/09 02:09:04;;;;;;;4.22;3.83;;;;;;;1.41;100.00;100427.06;6082243;23;20025;-71
2022/12/09 02:11:53;;;;;;;4.00;3.80;;;;;;;1.43;100.00;100427.91;6046807;23;20029;-73
2022/12/09 02:14:26;;;;;;;4.15;3.90;;;;;;;1.41;100.00;100415.88;6081230;23;20033;-73
2022/12/09 02:17:17;;;;;;;4.07;3.75;;;;;;;1.46;100.00;100416.63;6033097;23;20080;-73
2022/12/09 02:20:01;;;;;;;4.05;3.65;;;;;;;1.44;100.00;100418.41;6062352;23;20034;-73
2022/12/09 02:22:33;;;;;;;3.08;2.95;;;;;;;1.13;100.00;100368.13;6055584;23;20588;-71
2022/12/09 02:25:12;;;;;;;3.72;3.42;;;;;;;1.42;100.00;100408.06;6059190;23;20077;-71
2022/12/09 02:28:01;;;;;;;4.20;3.83;;;;;;;1.06;100.00;100348.44;6047776;23;20053;-71
2022/12/09 02:30:35;;;;;;;4.13;3.83;;;;;;;0.89;100.00;100332.41;6078728;23;20358;-71
2022/12/09 02:33:35;;;;;;;3.22;3.08;;;;;;;1.13;100.00;100370.72;6057348;23;20048;-72
2022/12/09 02:36:07;;;;;;;4.53;4.10;;;;;;;1.22;100.00;100381.75;6082376;23;20021;-73
2022/12/09 02:38:36;;;;;;;3.38;3.17;;;;;;;1.13;100.00;100375.88;6059264;23;20046;-71
2022/12/09 02:41:08;;;;;;;4.75;4.40;;;;;;;1.25;100.00;100398.06;6089274;23;20432;-72
2022/12/09 02:43:47;;;;;;;3.88;3.67;;;;;;;1.24;100.00;100400.69;6035199;23;20069;-72
2022/12/09 02:46:18;;;;;;;5.00;4.00;;;;;;;1.03;100.00;100404.50;6081222;23;20034;-72
2022/12/09 02:48:51;;;;;;;3.78;3.58;;;;;;;1.20;100.00;100405.03;6035286;23;20201;-73
2022/12/09 02:51:20;;;;;;;3.65;3.47;;;;;;;1.14;100.00;100395.69;6079164;23;20037;-71
2022/12/09 02:53:50;;;;;;;4.15;3.95;;;;;;;1.21;100.00;100400.75;6056199;23;20387;-71
2022/12/09 02:56:18;;;;;;;3.55;3.35;;;;;;;1.19;100.00;100393.03;6060143;23;20034;-71
2022/12/09 02:58:45;;;;;;;3.97;3.78;;;;;;;1.04;100.00;100365.72;6052472;23;20026;-74
2022/12/09 03:01:23;;;;;;;3.92;3.72;;;;;;;1.08;100.00;100361.34;6081940;23;20081;-73
2022/12/09 03:03:53;;;;;;;4.28;3.67;;;;;;;1.21;100.00;100387.81;6055023;23;20015;-71
2022/12/09 03:06:29;;;;;;;4.20;3.92;;;;;;;1.18;100.00;100389.59;6086613;23;20025;-73
2022/12/09 03:09:04;;;;;;;4.18;3.92;;;;;;;0.62;100.00;100311.34;6032517;23;20022;-70
2022/12/09 03:11:32;;;;;;;4.57;4.28;;;;;;;0.57;100.00;100310.59;6054408;23;20324;-71
2022/12/09 03:14:20;;;;;;;5.03;4.63;;;;;;;0.99;100.00;100376.13;6035293;23;20520;-72
2022/12/09 03:17:00;;;;;;;4.32;4.07;;;;;;;1.05;100.00;100384.66;6058531;23;20018;-72
2022/12/09 03:19:36;;;;;;;4.47;4.15;;;;;;;-0.18;100.00;100181.13;6060072;23;20054;-72
2022/12/09 03:22:08;;;;;;;3.75;3.47;;;;;;;0.66;100.00;100317.31;6086305;23;20021;-72
2022/12/09 03:24:51;;;;;;;4.00;3.80;;;;;;;1.02;100.00;100370.06;6050902;23;20030;-72
2022/12/09 03:27:23;;;;;;;3.40;3.20;;;;;;;0.98;100.00;100374.44;6083956;23;20042;-71
2022/12/09 03:29:51;;;;;;;3.70;3.50;;;;;;;0.77;100.00;100330.91;6056374;23;20018;-72
2022/12/09 03:32:23;;;;;;;3.88;3.67;;;;;;;-0.22;100.00;100169.13;6078186;23;20030;-73
2022/12/09 03:34:56;;;;;;;3.28;3.08;;;;;;;0.70;100.00;100306.06;6052561;23;20029;-73
2022/12/09 03:37:24;;;;;;;4.05;3.65;;;;;;;0.66;100.00;100292.38;6029120;23;20023;-72
2022/12/09 03:39:53;;;;;;;4.03;3.83;;;;;;;1.13;100.00;100368.13;6081609;23;20013;-72
2022/12/09 03:42:28;;;;;;;4.00;3.80;;;;;;;1.00;100.00;100338.22;6052500;23;20053;-71
2022/12/09 03:45:08;;;;;;;3.92;3.72;;;;;;;1.16;100.00;100362.91;6084567;23;20021;-71
2022/12/09 03:47:36;;;;;;;3.67;3.47;;;;;;;1.14;100.00;100354.34;6050683;23;20038;-73
2022/12/09 03:50:04;;;;;;;4.10;3.83;;;;;;;0.86;100.00;100306.63;6083664;23;20006;-72
2022/12/09 03:52:50;;;;;;;3.40;3.20;;;;;;;0.76;100.00;100293.91;6058233;23;20527;-71
2022/12/09 03:55:33;;;;;;;3.78;3.58;;;;;;;1.05;100.00;100356.25;6083722;23;20108;-72
2022/12/09 03:58:02;;;;;;;4.75;3.70;;;;;;;0.96;100.00;100354.66;6043978;23;20030;-71
2022/12/09 04:00:29;;;;;;;3.40;3.08;;;;;;;0.56;100.00;100294.25;6079514;23;20014;-73
2022/12/09 04:02:55;;;;;;;3.30;3.20;;;;;;;0.82;100.00;100325.66;6003388;23;20394;-71
2022/12/09 04:05:22;;;;;;;3.70;3.50;;;;;;;1.02;100.00;100375.22;6081625;23;20027;-71
2022/12/09 04:07:49;;;;;;;3.45;3.30;;;;;;;1.03;100.00;100352.84;6054468;23;20026;-71
2022/12/09 04:10:15;;;;;;;4.72;3.63;;;;;;;1.03;100.00;100350.25;6086765;23;20025;-72
2022/12/09 04:12:42;;;;;;;4.25;3.97;;;;;;;0.85;100.00;100310.09;6056424;23;20080;-72
2022/12/09 04:15:08;;;;;;;3.42;3.30;;;;;;;0.52;100.00;100248.72;6062851;23;20055;-72
2022/12/09 04:17:35;;;;;;;4.28;4.00;;;;;;;1.11;100.00;100346.63;6056855;23;20097;-71
2022/12/09 04:20:03;;;;;;;4.03;3.72;;;;;;;1.14;100.00;100349.19;6085619;23;20040;-72
2022/12/09 04:22:32;;;;;;;3.22;3.10;;;;;;;1.07;100.00;100326.91;6050668;23;20036;-73
2022/12/09 04:24:58;;;;;;;6.47;3.65;;;;;;;1.14;100.00;100345.72;6084344;23;20358;-71
2022/12/09 04:27:25;;;;;;;3.28;3.17;;;;;;;0.78;100.00;100276.66;6031466;23;20516;-72
2022/12/09 04:29:52;;;;;;;5.70;4.13;;;;;;;1.15;100.00;100337.94;6059557;23;20344;-71
2022/12/09 04:32:18;;;;;;;5.90;5.43;;;;;;;0.32;100.00;100285.22;6028610;23;20026;-73
2022/12/09 04:34:45;;;;;;;3.80;3.58;;;;;;;1.15;100.00;100342.25;6050985;23;20523;-72
2022/12/09 04:37:11;;;;;;;3.60;3.40;;;;;;;1.16;100.00;100337.06;6056312;23;20070;-71
2022/12/09 04:39:40;;;;;;;3.38;3.17;;;;;;;0.86;100.00;100285.97;6083294;23;20520;-72
2022/12/09 04:42:07;;;;;;;5.10;4.60;;;;;;;0.95;100.00;100301.31;6056677;23;20037;-71
2022/12/09 04:44:34;;;;;;;4.47;4.22;;;;;;;1.18;100.00;100335.31;6085370;23;20034;-73
2022/12/09 04:47:00;;;;;;;5.15;4.57;;;;;;;1.06;100.00;100314.84;6046446;23;20022;-71
2022/12/09 04:49:27;;;;;;;3.58;3.38;;;;;;;1.16;100.00;100329.31;6056683;23;20022;-71
2022/12/09 04:51:54;;;;;;;23.95;3.53;;;;;;;0.49;100.00;100229.84;6028945;23;20468;-71
2022/12/09 04:54:20;;;;;;;3.47;3.30;;;;;;;1.15;100.00;100335.34;6081999;23;20093;-71
2022/12/09 04:56:48;;;;;;;4.20;3.88;;;;;;;0.85;100.00;100299.78;6048001;23;20064;-72
2022/12/09 04:59:15;;;;;;;3.10;3.00;;;;;;;0.89;100.00;100285.91;6075969;23;20484;-72
2022/12/09 05:01:41;;;;;;;4.40;4.18;;;;;;;1.12;100.00;100322.50;6052344;23;20107;-72
2022/12/09 05:04:08;;;;;;;3.75;3.55;;;;;;;1.14;100.00;100327.63;6083836;23;20480;-72
2022/12/09 05:06:35;;;;;;;3.88;3.58;;;;;;;1.12;100.00;100344.91;6038991;23;20083;-72
2022/12/09 05:09:03;;;;;;;3.33;3.20;;;;;;;1.09;100.00;100319.97;6074777;23;20058;-71
2022/12/09 05:11:29;;;;;;;3.38;3.17;;;;;;;0.53;100.00;100226.31;6056554;23;20448;-72
2022/12/09 05:13:56;;;;;;;3.65;3.45;;;;;;;1.14;100.00;100327.63;6086140;23;20030;-72
2022/12/09 05:16:23;;;;;;;3.33;3.13;;;;;;;1.15;100.00;100329.34;6060753;23;20026;-71
2022/12/09 05:18:50;;;;;;;3.35;3.15;;;;;;;1.14;100.00;100332.78;6092612;23;20026;-72
2022/12/09 05:21:18;;;;;;;4.40;4.10;;;;;;;1.12;100.00;100321.63;6059882;23;20545;-72
2022/12/09 05:23:46;;;;;;;3.13;2.97;;;;;;;0.72;100.00;100288.81;6063979;23;20021;-71
2022/12/09 05:26:16;;;;;;;4.00;3.80;;;;;;;1.03;100.00;100324.41;6054413;23;20379;-72
2022/12/09 05:28:43;;;;;;;3.78;3.58;;;;;;;1.00;100.00;100320.13;6087633;23;20081;-72
2022/12/09 05:31:16;;;;;;;3.20;3.00;;;;;;;0.95;100.00;100314.22;6059529;23;20022;-71
2022/12/09 05:33:44;;;;;;;19.00;18.00;;;;;;;0.87;100.00;100308.34;5953459;23;20258;-71
2022/12/09 05:36:14;;;;;;;3.65;3.47;;;;;;;0.89;100.00;100314.34;6060688;23;20768;-72
2022/12/09 05:38:41;;;;;;;3.90;3.60;;;;;;;0.85;100.00;100304.94;6064696;23;20471;-72
2022/12/09 05:41:09;;;;;;;3.65;3.45;;;;;;;0.81;100.00;100308.47;6053258;23;20081;-71
2022/12/09 05:43:36;;;;;;;4.25;4.05;;;;;;;0.82;100.00;100312.72;6060936;23;20028;-72
2022/12/09 05:46:06;;;;;;;3.45;3.30;;;;;;;0.29;100.00;100223.31;6053903;23;20080;-71
2022/12/09 05:48:34;;;;;;;3.65;3.38;;;;;;;0.65;100.00;100280.31;6087134;23;20037;-72
2022/12/09 05:51:04;;;;;;;4.00;3.70;;;;;;;0.89;100.00;100302.25;6062423;23;20085;-72
2022/12/09 05:53:31;;;;;;;3.30;3.20;;;;;;;0.82;100.00;100290.31;6083208;23;20006;-70
2022/12/09 05:55:59;;;;;;;4.45;4.07;;;;;;;0.95;100.00;100306.47;6033516;23;20433;-70
2022/12/09 05:58:26;;;;;;;4.32;4.00;;;;;;;0.99;100.00;100305.53;6086602;23;20026;-73
2022/12/09 06:00:56;;;;;;;4.72;4.43;;;;;;;0.62;100.00;100236.47;6056533;23;20032;-72
2022/12/09 06:03:23;;;;;;;3.53;3.28;;;;;;;0.62;100.00;100233.88;6085449;23;20127;-72
2022/12/09 06:05:50;;;;;;;3.75;3.45;;;;;;;-0.22;100.00;100095.22;6058399;23;20042;-72
2022/12/09 06:08:17;;;;;;;3.53;3.35;;;;;;;0.81;100.00;100261.97;6086999;23;20025;-75
2022/12/09 06:10:44;;;;;;;3.92;3.45;;;;;;;0.90;100.00;100279.84;6058804;23;20425;-71
2022/12/09 06:13:12;;;;;;;3.58;3.38;;;;;;;0.10;100.00;100140.22;6059799;23;20042;-72
2022/12/09 06:15:39;;;;;;;3.70;3.50;;;;;;;0.43;100.00;100202.41;6035010;23;20437;-73
2022/12/09 06:18:06;;;;;;;4.40;4.18;;;;;;;1.03;100.00;100296.00;6081628;23;20025;-73
2022/12/09 06:20:33;;;;;;;3.28;3.13;;;;;;;0.63;100.00;100216.69;6057667;23;20647;-71
2022/12/09 06:23:00;;;;;;;3.53;3.33;;;;;;;0.97;100.00;100271.13;6081859;23;20533;-72
2022/12/09 06:25:26;;;;;;;3.80;3.60;;;;;;;0.67;100.00;100236.41;6051624;23;20468;-72
2022/12/09 06:27:53;;;;;;;4.10;3.65;;;;;;;0.89;100.00;100265.25;6084364;23;20370;-74
2022/12/09 06:30:19;;;;;;;7.30;4.82;;;;;;;0.96;100.00;100277.16;6032793;23;20093;-71
2022/12/09 06:32:46;;;;;;;5.68;4.32;;;;;;;0.67;100.00;100228.66;6087765;23;20127;-70
2022/12/09 06:35:13;;;;;;;3.85;3.55;;;;;;;0.73;100.00;100234.53;6055962;23;20093;-72
2022/12/09 06:37:41;;;;;;;4.18;3.88;;;;;;;0.92;100.00;100273.81;6079035;23;20104;-72
2022/12/09 06:40:08;;;;;;;3.53;3.33;;;;;;;0.88;100.00;100263.53;6032201;23;20002;-72
2022/12/09 06:42:35;;;;;;;3.25;3.15;;;;;;;0.78;100.00;100274.06;6065924;23;20033;-72
2022/12/09 06:45:02;;;;;;;2.88;2.78;;;;;;;0.15;100.00;100196.91;6057275;23;20273;-72
2022/12/09 06:47:29;;;;;;;4.25;3.95;;;;;;;0.09;100.00;100210.75;6082354;23;22449;-71
2022/12/09 06:49:56;;;;;;;4.47;4.25;;;;;;;0.29;100.00;100285.25;6050450;23;20034;-72
2022/12/09 06:52:31;;;;;;;3.50;3.28;;;;;;;0.18;100.00;100282.84;6067793;23;20021;-72
2022/12/09 06:54:58;;;;;;;4.90;3.95;;;;;;;-1.24;100.00;100061.63;6058333;23;20457;-72
2022/12/09 06:57:25;;;;;;;5.65;3.50;;;;;;;-0.57;100.00;100198.91;6086778;23;22298;-72
2022/12/09 06:59:52;;;;;;;3.65;3.17;;;;;;;-0.17;100.00;100282.53;6028146;23;20007;-74
2022/12/09 07:02:19;;;;;;;5.25;4.88;;;;;;;-0.31;100.00;100298.22;6073016;23;20026;-71
2022/12/09 07:04:51;;;;;;;2.78;2.67;;;;;;;-0.43;100.00;100281.19;6052393;23;20163;-72
2022/12/09 07:07:18;;;;;;;4.70;4.30;;;;;;;-0.75;100.00;100274.72;6084675;23;20026;-73
2022/12/09 07:09:45;;;;;;;3.80;3.47;;;;;;;-0.54;100.00;100286.50;6055101;23;20209;-71
2022/12/09 07:12:12;;;;;;;4.32;3.72;;;;;;;-0.63;100.00;100286.59;6083127;23;20041;-71
2022/12/09 07:14:38;;;;;;;5.20;3.97;;;;;;;-0.70;100.00;100283.25;6051999;23;20366;-71
2022/12/09 07:17:06;;;;;;;3.65;3.40;;;;;;;-0.94;100.00;100261.22;6086198;23;20658;-74
2022/12/09 07:19:33;;;;;;;3.70;3.50;;;;;;;-0.84;100.00;100280.84;6054569;23;20076;-72
2022/12/09 07:22:00;;;;;;;3.10;2.90;;;;;;;-0.90;100.00;100280.06;6088449;23;20030;-70
2022/12/09 07:24:26;;;;;;;4.05;3.85;;;;;;;-0.94;100.00;100291.25;6054315;23;20113;-71
2022/12/09 07:26:53;;;;;;;4.45;3.67;;;;;;;-1.20;100.00;100253.81;6082027;23;20025;-71
2022/12/09 07:29:19;;;;;;;3.28;3.17;;;;;;;-1.64;100.00;100196.78;6029242;23;20402;-71
2022/12/09 07:31:46;;;;;;;3.08;2.97;;;;;;;-1.41;100.00;100224.00;6084289;23;20006;-71
2022/12/09 07:34:14;;;;;;;3.33;3.15;;;;;;;-1.31;100.00;100238.47;6048935;23;20014;-71
2022/12/09 07:36:40;;;;;;;3.72;3.53;;;;;;;-1.43;100.00;100229.16;6054193;23;20041;-72
2022/12/09 07:39:14;;;;;;;3.90;3.40;;;;;;;-1.63;100.00;100198.47;6037381;23;20034;-73
2022/12/09 07:41:42;;;;;;;3.92;3.67;;;;;;;-1.10;100.00;100294.03;6097996;23;20030;-73
2022/12/09 07:44:10;;;;;;;3.40;3.20;;;;;;;-1.12;100.00;100295.78;6054905;23;20034;-76
2022/12/09 07:46:37;;;;;;;3.42;3.28;;;;;;;-1.29;100.00;100269.34;6080067;23;20372;-74
2022/12/09 07:49:04;;;;;;;3.97;3.65;;;;;;;-1.27;100.00;100283.06;6058329;23;20030;-76
2022/12/09 07:51:32;;;;;;;3.80;3.50;;;;;;;-1.30;100.00;100281.38;6002019;23;20151;-76
2022/12/09 07:53:58;;;;;;;5.18;4.70;;;;;;;-2.25;100.00;100120.22;6043638;23;20030;-76
2022/12/09 07:56:27;;;;;;;3.05;2.95;;;;;;;-1.21;100.00;100291.56;6084825;23;20122;-76
2022/12/09 07:58:55;;;;;;;3.50;3.30;;;;;;;-1.19;100.00;100319.88;6051617;23;20014;-76
2022/12/09 08:01:26;;;;;;;3.55;3.25;;;;;;;-1.19;100.00;100285.56;6080945;23;20093;-76
2022/12/09 08:03:54;;;;;;;4.25;3.88;;;;;;;-1.16;100.00;100275.19;6054607;23;20034;-75
2022/12/09 08:06:23;;;;;;;3.85;3.55;;;;;;;-1.46;100.00;100211.19;5998904;23;20050;-75
2022/12/09 08:08:50;;;;;;;3.25;3.15;;;;;;;-0.92;100.00;100282.69;6079483;23;20093;-75
2022/12/09 08:11:20;;;;;;;4.38;3.60;;;;;;;-0.88;100.00;100286.91;6053886;23;20084;-75
2022/12/09 08:13:48;;;;;;;3.45;3.35;;;;;;;-0.82;100.00;100286.00;6053161;23;20079;-75
2022/12/09 08:16:17;;;;;;;3.97;3.78;;;;;;;-1.17;100.00;100224.59;6027609;23;20198;-75
2022/12/09 08:18:45;;;;;;;4.18;3.88;;;;;;;-0.78;100.00;100276.47;6055935;23;20029;-75
2022/12/09 08:21:40;;;;;;;5.10;4.80;;;;;;;-0.63;100.00;100299.50;6033027;23;20287;-75
2022/12/09 08:24:09;;;;;;;3.05;2.90;;;;;;;-1.08;100.00;100230.50;6006694;23;20026;-76
2022/12/09 08:26:38;;;;;;;3.92;3.72;;;;;;;-0.62;100.00;100296.91;6046705;23;20010;-75
2022/12/09 08:29:07;;;;;;;4.47;4.10;;;;;;;-0.58;100.00;100295.13;6057843;23;20464;-76
2022/12/09 08:31:34;;;;;;;3.78;3.58;;;;;;;-1.01;100.00;100206.34;6054001;23;20204;-74
2022/12/09 08:34:07;;;;;;;3.75;3.55;;;;;;;-1.65;100.00;100099.88;6082334;23;20099;-75
2022/12/09 08:36:35;;;;;;;4.30;3.92;;;;;;;-0.42;100.00;100282.91;6049875;23;20018;-75
2022/12/09 08:39:03;;;;;;;3.92;3.72;;;;;;;-0.78;100.00;100205.22;6057200;23;20082;-74
2022/12/09 08:41:36;;;;;;;4.30;4.10;;;;;;;-0.20;100.00;100273.13;6055229;23;20043;-76
2022/12/09 08:44:04;;;;;;;3.97;3.78;;;;;;;-0.14;100.00;100274.75;5999288;23;20557;-77
2022/12/09 08:46:32;;;;;;;4.43;4.07;;;;;;;0.00;100.00;100278.00;6053701;23;20408;-75
2022/12/09 08:49:02;;;;;;;4.30;4.00;;;;;;;-0.68;100.00;100137.22;6052063;23;20648;-75
2022/12/09 08:51:30;;;;;;;4.20;3.83;;;;;;;-1.14;100.00;100049.47;6085011;23;20073;-75
2022/12/09 08:53:58;;;;;;;3.55;3.35;;;;;;;0.29;100.00;100269.75;6055374;23;20071;-76
2022/12/09 08:56:25;;;;;;;3.50;3.30;;;;;;;0.00;100.00;100203.19;6084224;23;20048;-76
2022/12/09 08:58:53;;;;;;;4.18;3.78;;;;;;;0.05;100.00;100201.34;6027638;23;20093;-74
2022/12/09 09:01:24;;;;;;;3.72;3.55;;;;;;;0.08;100.00;100193.59;6083853;23;20520;-74
2022/12/09 09:03:52;;;;;;;4.10;3.83;;;;;;;0.12;100.00;100202.09;6055703;23;21523;-75
2022/12/09 09:06:19;;;;;;;3.67;3.47;;;;;;;0.47;100.00;100247.09;6057409;23;20025;-76
2022/12/09 09:08:46;;;;;;;3.53;3.28;;;;;;;0.70;100.00;100314.69;6030926;23;20543;-75
2022/12/09 09:11:16;;;;;;;4.10;3.83;;;;;;;0.65;100.00;100275.16;6095515;18;20018;-72
2022/12/09 09:13:44;;;;;;;3.45;3.25;;;;;;;0.63;100.00;100286.41;6035839;23;20041;-76
2022/12/09 09:16:18;;;;;;;4.60;4.20;;;;;;;0.26;100.00;100219.91;6062741;23;20024;-75
2022/12/09 09:18:47;;;;;;;6.05;5.15;;;;;;;0.68;100.00;100293.19;6027194;23;20044;-75
2022/12/09 09:21:17;;;;;;;4.60;4.30;;;;;;;0.69;100.00;100304.38;6075603;23;20020;-73
2022/12/09 09:23:43;;;;;;;4.45;4.15;;;;;;;0.29;100.00;100230.19;6023198;23;20077;-74
2022/12/09 09:26:13;;;;;;;3.97;3.78;;;;;;;0.32;100.00;100231.00;6047131;23;20018;-75
2022/12/09 09:28:41;;;;;;;4.10;3.90;;;;;;;0.73;100.00;100299.09;6033957;23;20030;-73
2022/12/09 09:31:11;;;;;;;4.28;3.97;;;;;;;0.28;100.00;100244.84;6022732;23;20011;-73
2022/12/09 09:33:39;;;;;;;3.67;3.38;;;;;;;0.62;100.00;100272.63;6021726;23;20053;-74
2022/12/09 09:36:10;;;;;;;27.77;5.25;;;;;;;0.86;100.00;100296.28;6063856;23;20084;-73
2022/12/09 09:38:37;;;;;;;4.60;3.60;;;;;;;0.87;100.00;100296.28;6040073;23;20074;-74
2022/12/09 09:41:42;;;;;;;4.65;4.25;;;;;;;0.88;100.00;100294.53;6019526;23;20067;-74
2022/12/09 09:44:26;;;;;;;4.30;3.90;;;;;;;0.88;100.00;100286.78;6043395;23;20132;-76
2022/12/09 09:46:54;;;;;;;8.18;4.32;;;;;;;0.70;100.00;100259.56;6011765;23;20657;-75
2022/12/09 09:49:25;;;;;;;3.53;3.35;;;;;;;1.08;100.00;100301.91;6039905;23;20050;-74
2022/12/09 09:51:53;;;;;;;5.07;3.97;;;;;;;0.69;100.00;100217.41;6017539;23;20029;-74
2022/12/09 09:54:19;;;;;;;4.15;3.75;;;;;;;1.10;100.00;100274.28;6069537;23;20479;-75
2022/12/09 09:56:53;;;;;;;4.13;3.83;;;;;;;1.28;100.00;100298.91;6039752;23;20028;-75
2022/12/09 09:59:33;;;;;;;12.35;4.90;;;;;;;0.76;100.00;100193.19;6005283;23;20146;-73
2022/12/09 10:02:27;;;;;;;5.32;4.85;;;;;;;1.39;100.00;100289.22;6075258;23;20147;-73
2022/12/09 10:05:01;;;;;;;5.75;4.45;;;;;;;0.84;100.00;100190.41;5996877;23;20030;-72
2022/12/09 10:07:43;;;;;;;5.00;4.63;;;;;;;1.43;100.00;100308.97;6019934;23;20061;-74
2022/12/09 10:10:27;;;;;;;6.43;4.57;;;;;;;1.24;100.00;100259.34;6036101;23;20029;-75
2022/12/09 10:13:16;;;;;;;4.25;4.05;;;;;;;1.42;100.00;100285.72;6070141;23;20018;-74
2022/12/09 10:15:59;;;;;;;7.05;4.45;;;;;;;1.10;100.00;100222.63;6023946;23;20113;-73
2022/12/09 10:18:34;;;;;;;3.65;3.47;;;;;;;1.63;100.00;100284.41;6079850;23;20445;-74
2022/12/09 10:21:00;;;;;;;4.60;4.28;;;;;;;1.78;100.00;100284.06;6002707;23;20019;-74
2022/12/09 10:23:30;;;;;;;4.80;4.50;;;;;;;1.56;100.00;100247.47;6056927;23;20033;-75
2022/12/09 10:26:04;;;;;;;5.50;3.97;;;;;;;1.78;100.00;100295.28;6023462;23;20036;-76
2022/12/09 10:28:45;;;;;;;5.93;5.35;;;;;;;1.16;100.00;100169.09;6076463;23;20029;-74
2022/12/09 10:31:12;;;;;;;5.25;4.88;;;;;;;1.72;100.00;100237.63;6022360;23;20015;-74
2022/12/09 10:33:39;;;;;;;4.25;4.05;;;;;;;1.80;100.00;100238.28;6044012;23;20464;-76
2022/12/09 10:36:27;;;;;;;4.00;3.80;;;;;;;1.61;100.00;100173.22;6045921;23;20006;-73
2022/12/09 10:39:01;;;;;;;4.55;4.25;;;;;;;1.75;100.00;100191.00;6006835;23;20051;-73
2022/12/09 10:44:38;;;;;;;3.78;3.58;;;;;;;2.19;100.00;100243.41;6022970;23;20018;-73
2022/12/09 10:47:22;;;;;;;4.97;4.25;;;;;;;2.38;100.00;100275.69;6078457;23;20030;-74
2022/12/09 10:49:51;;;;;;;5.40;4.38;;;;;;;1.91;100.00;100181.97;6024900;23;20030;-72
2022/12/09 10:52:24;;;;;;;4.90;4.53;;;;;;;2.59;100.00;100283.84;6073090;23;20041;-75
2022/12/09 10:54:51;;;;;;;4.75;4.40;;;;;;;2.68;100.00;100283.56;6020611;23;20015;-76
2022/12/09 10:57:18;;;;;;;5.90;5.40;;;;;;;2.67;100.00;100281.88;6067167;23;20236;-75
2022/12/09 10:59:55;;;;;;;4.68;4.38;;;;;;;2.65;100.00;100286.25;6039401;23;20082;-76
2022/12/09 11:02:24;;;;;;;4.00;3.80;;;;;;;2.52;100.00;100275.34;6017849;23;20050;-74
2022/12/09 11:04:51;;;;;;;4.10;3.80;;;;;;;2.43;100.00;100254.88;6071083;23;20085;-73
2022/12/09 11:07:21;;;;;;;5.47;4.63;;;;;;;2.68;100.00;100288.75;6014729;23;20037;-75
2022/12/09 11:09:50;;;;;;;4.72;4.13;;;;;;;2.48;100.00;100285.84;6045858;23;20022;-76
2022/12/09 11:12:27;;;;;;;4.57;4.32;;;;;;;2.70;100.00;100296.50;6011969;23;20034;-74
2022/12/09 11:15:23;;;;;;;4.97;4.55;;;;;;;2.73;100.00;100299.03;6014197;23;20038;-75
2022/12/09 11:18:01;;;;;;;6.03;5.18;;;;;;;2.68;100.00;100278.38;6047374;23;20109;-75
2022/12/09 11:20:30;;;;;;;4.15;3.95;;;;;;;2.38;100.00;100283.47;6074400;23;20031;-76
2022/12/09 11:23:03;;;;;;;6.63;5.50;;;;;;;2.60;100.00;100296.72;6048422;23;20089;-74
2022/12/09 11:25:33;;;;;;;6.82;5.05;;;;;;;2.12;100.00;100214.22;6015768;23;20335;-76
2022/12/09 11:28:21;;;;;;;4.60;4.25;;;;;;;2.66;100.00;100300.91;6066558;23;20050;-77
2022/12/09 11:30:56;;;;;;;8.50;5.93;;;;;;;2.73;100.00;100302.44;6043916;23;20018;-77
2022/12/09 11:33:53;;;;;;;5.15;4.72;;;;;;;2.84;100.00;100303.91;6057551;23;20018;-75
2022/12/09 11:36:25;;;;;;;4.68;4.38;;;;;;;2.88;100.00;100308.97;6047331;23;20002;-76
2022/12/09 11:39:16;;;;;;;4.22;3.97;;;;;;;2.77;100.00;100283.34;6023189;23;20103;-76
2022/12/09 11:45:01;;;;;;;5.40;4.63;;;;;;;2.92;100.00;100300.19;6016912;23;20028;-75